sensor_id;sensor_type;location;lat;lon;timestamp;P1;durP1;ratioP1;P2;durP2;ratioP2
33006;SDS011;19361;51.598;7.650;2023-06-14T00:01:00;3.72;;;3.40;;
33006;SDS011;19361;51.598;7.650;2023-06-14T00:06:23;4.20;;;3.67;;
33006;SDS011;19361;51.598;7.650;2023-06-14T00:11:44;5.75;;;3.45;;
33006;SDS011;19361;51.598;7.650;2023-06-14T00:17:05;3.42;;;3.13;;
33006;SDS011;19361;51.598;7.650;2023-06-14T00:22:27;3.45;;;3.15;;
33006;SDS011;19361;51.598;7.650;2023-06-14T00:27:49;6.07;;;3.10;;
33006;SDS011;19361;51.598;7.650;2023-06-14T00:33:10;3.60;;;3.30;;
33006;SDS011;19361;51.598;7.650;2023-06-14T00:38:31;8.27;;;3.65;;
33006;SDS011;19361;51.598;7.650;2023-06-14T00:43:52;5.63;;;3.25;;
33006;SDS011;19361;51.598;7.650;2023-06-14T00:49:16;4.57;;;3.45;;
33006;SDS011;19361;51.598;7.650;2023-06-14T00:54:39;10.07;;;3.85;;
33006;SDS011;19361;51.598;7.650;2023-06-14T01:00:02;8.52;;;3.25;;
33006;SDS011;19361;51.598;7.650;2023-06-14T01:05:25;4.07;;;3.03;;
33006;SDS011;19361;51.598;7.650;2023-06-14T01:11:01;7.32;;;3.15;;
33006;SDS011;19361;51.598;7.650;2023-06-14T01:16:29;8.45;;;3.28;;
33006;SDS011;19361;51.598;7.650;2023-06-14T01:21:52;9.27;;;3.33;;
33006;SDS011;19361;51.598;7.650;2023-06-14T01:27:13;3.30;;;2.85;;
33006;SDS011;19361;51.598;7.650;2023-06-14T01:32:36;5.18;;;3.28;;
33006;SDS011;19361;51.598;7.650;2023-06-14T01:37:57;10.15;;;3.10;;
33006;SDS011;19361;51.598;7.650;2023-06-14T01:43:20;5.10;;;3.20;;
33006;SDS011;19361;51.598;7.650;2023-06-14T01:48:42;3.60;;;3.15;;
33006;SDS011;19361;51.598;7.650;2023-06-14T01:54:04;8.68;;;3.50;;
33006;SDS011;19361;51.598;7.650;2023-06-14T01:59:25;4.68;;;3.35;;
33006;SDS011;19361;51.598;7.650;2023-06-14T02:04:46;8.10;;;4.55;;
33006;SDS011;19361;51.598;7.650;2023-06-14T02:10:08;3.22;;;2.92;;
33006;SDS011;19361;51.598;7.650;2023-06-14T02:15:29;3.67;;;3.03;;
33006;SDS011;19361;51.598;7.650;2023-06-14T02:20:54;4.22;;;3.17;;
33006;SDS011;19361;51.598;7.650;2023-06-14T02:26:15;4.32;;;2.88;;
33006;SDS011;19361;51.598;7.650;2023-06-14T02:31:36;8.73;;;2.85;;
33006;SDS011;19361;51.598;7.650;2023-06-14T02:36:58;3.88;;;3.25;;
33006;SDS011;19361;51.598;7.650;2023-06-14T02:42:19;5.50;;;3.08;;
33006;SDS011;19361;51.598;7.650;2023-06-14T02:47:40;3.88;;;2.78;;
33006;SDS011;19361;51.598;7.650;2023-06-14T02:53:01;5.38;;;2.58;;
33006;SDS011;19361;51.598;7.650;2023-06-14T02:58:23;3.67;;;3.17;;
33006;SDS011;19361;51.598;7.650;2023-06-14T03:03:45;5.95;;;2.60;;
33006;SDS011;19361;51.598;7.650;2023-06-14T03:09:06;6.10;;;2.80;;
33006;SDS011;19361;51.598;7.650;2023-06-14T03:14:29;3.90;;;2.60;;
33006;SDS011;19361;51.598;7.650;2023-06-14T03:19:53;7.05;;;3.17;;
33006;SDS011;19361;51.598;7.650;2023-06-14T03:25:14;3.08;;;2.72;;
33006;SDS011;19361;51.598;7.650;2023-06-14T03:30:35;5.38;;;2.97;;
33006;SDS011;19361;51.598;7.650;2023-06-14T03:35:56;3.67;;;2.90;;
33006;SDS011;19361;51.598;7.650;2023-06-14T03:41:17;4.95;;;3.00;;
33006;SDS011;19361;51.598;7.650;2023-06-14T03:46:38;6.53;;;2.80;;
33006;SDS011;19361;51.598;7.650;2023-06-14T03:52:00;3.30;;;3.00;;
33006;SDS011;19361;51.598;7.650;2023-06-14T03:57:23;4.50;;;3.03;;
33006;SDS011;19361;51.598;7.650;2023-06-14T04:02:44;7.28;;;2.85;;
33006;SDS011;19361;51.598;7.650;2023-06-14T04:08:05;4.43;;;4.00;;
33006;SDS011;19361;51.598;7.650;2023-06-14T04:13:29;4.35;;;3.08;;
33006;SDS011;19361;51.598;7.650;2023-06-14T04:18:50;3.42;;;2.78;;
33006;SDS011;19361;51.598;7.650;2023-06-14T04:24:12;4.18;;;2.83;;
33006;SDS011;19361;51.598;7.650;2023-06-14T04:29:34;3.17;;;2.70;;
33006;SDS011;19361;51.598;7.650;2023-06-14T04:34:55;6.07;;;2.78;;
33006;SDS011;19361;51.598;7.650;2023-06-14T04:40:17;5.50;;;2.92;;
33006;SDS011;19361;51.598;7.650;2023-06-14T04:45:38;6.28;;;3.28;;
33006;SDS011;19361;51.598;7.650;2023-06-14T04:51:00;4.30;;;2.78;;
33006;SDS011;19361;51.598;7.650;2023-06-14T04:56:21;3.05;;;2.53;;
33006;SDS011;19361;51.598;7.650;2023-06-14T05:01:42;3.78;;;3.10;;
33006;SDS011;19361;51.598;7.650;2023-06-14T05:07:08;3.90;;;2.65;;
33006;SDS011;19361;51.598;7.650;2023-06-14T05:12:29;5.93;;;2.58;;
33006;SDS011;19361;51.598;7.650;2023-06-14T05:17:50;6.85;;;2.97;;
33006;SDS011;19361;51.598;7.650;2023-06-14T05:23:15;3.10;;;2.30;;
33006;SDS011;19361;51.598;7.650;2023-06-14T05:28:36;2.97;;;2.70;;
33006;SDS011;19361;51.598;7.650;2023-06-14T05:33:57;3.72;;;2.50;;
33006;SDS011;19361;51.598;7.650;2023-06-14T05:39:18;5.95;;;3.03;;
33006;SDS011;19361;51.598;7.650;2023-06-14T05:44:39;3.80;;;2.67;;
33006;SDS011;19361;51.598;7.650;2023-06-14T05:50:00;7.10;;;3.10;;
33006;SDS011;19361;51.598;7.650;2023-06-14T05:55:22;4.53;;;2.40;;
33006;SDS011;19361;51.598;7.650;2023-06-14T06:00:43;6.47;;;2.53;;
33006;SDS011;19361;51.598;7.650;2023-06-14T06:06:04;6.32;;;2.75;;
33006;SDS011;19361;51.598;7.650;2023-06-14T06:11:25;2.80;;;2.35;;
33006;SDS011;19361;51.598;7.650;2023-06-14T06:16:46;4.20;;;2.70;;
33006;SDS011;19361;51.598;7.650;2023-06-14T06:22:07;3.80;;;2.70;;
33006;SDS011;19361;51.598;7.650;2023-06-14T06:27:28;7.20;;;2.83;;
33006;SDS011;19361;51.598;7.650;2023-06-14T06:32:50;4.32;;;2.55;;
33006;SDS011;19361;51.598;7.650;2023-06-14T06:38:11;2.97;;;2.40;;
33006;SDS011;19361;51.598;7.650;2023-06-14T06:43:32;5.57;;;2.60;;
33006;SDS011;19361;51.598;7.650;2023-06-14T06:48:53;5.93;;;2.50;;
33006;SDS011;19361;51.598;7.650;2023-06-14T06:54:15;2.78;;;2.30;;
33006;SDS011;19361;51.598;7.650;2023-06-14T06:59:36;5.47;;;2.72;;
33006;SDS011;19361;51.598;7.650;2023-06-14T07:04:57;4.22;;;2.42;;
33006;SDS011;19361;51.598;7.650;2023-06-14T07:10:18;2.47;;;2.28;;
33006;SDS011;19361;51.598;7.650;2023-06-14T07:15:39;2.72;;;2.40;;
33006;SDS011;19361;51.598;7.650;2023-06-14T07:21:01;6.10;;;2.42;;
33006;SDS011;19361;51.598;7.650;2023-06-14T07:26:22;3.13;;;2.60;;
33006;SDS011;19361;51.598;7.650;2023-06-14T07:31:43;2.67;;;2.28;;
33006;SDS011;19361;51.598;7.650;2023-06-14T07:37:04;4.85;;;1.98;;
33006;SDS011;19361;51.598;7.650;2023-06-14T07:42:25;2.45;;;1.70;;
33006;SDS011;19361;51.598;7.650;2023-06-14T07:47:47;1.90;;;1.80;;
33006;SDS011;19361;51.598;7.650;2023-06-14T07:53:08;5.57;;;1.70;;
33006;SDS011;19361;51.598;7.650;2023-06-14T07:58:29;1.50;;;1.40;;
33006;SDS011;19361;51.598;7.650;2023-06-14T08:03:50;1.95;;;1.60;;
33006;SDS011;19361;51.598;7.650;2023-06-14T08:09:11;1.35;;;1.25;;
33006;SDS011;19361;51.598;7.650;2023-06-14T08:14:33;2.00;;;1.38;;
33006;SDS011;19361;51.598;7.650;2023-06-14T08:19:54;1.60;;;1.50;;
33006;SDS011;19361;51.598;7.650;2023-06-14T08:25:17;1.52;;;1.25;;
33006;SDS011;19361;51.598;7.650;2023-06-14T08:30:39;1.63;;;1.10;;
33006;SDS011;19361;51.598;7.650;2023-06-14T08:36:02;1.15;;;1.00;;
33006;SDS011;19361;51.598;7.650;2023-06-14T08:41:24;3.90;;;1.13;;
33006;SDS011;19361;51.598;7.650;2023-06-14T08:46:47;1.08;;;0.93;;
33006;SDS011;19361;51.598;7.650;2023-06-14T08:52:08;1.23;;;1.13;;
33006;SDS011;19361;51.598;7.650;2023-06-14T08:57:33;1.33;;;1.20;;
33006;SDS011;19361;51.598;7.650;2023-06-14T09:02:57;1.00;;;1.00;;
33006;SDS011;19361;51.598;7.650;2023-06-14T09:08:18;5.57;;;1.00;;
33006;SDS011;19361;51.598;7.650;2023-06-14T09:13:42;3.47;;;1.35;;
33006;SDS011;19361;51.598;7.650;2023-06-14T09:19:03;1.58;;;1.05;;
33006;SDS011;19361;51.598;7.650;2023-06-14T09:24:24;3.15;;;1.17;;
33006;SDS011;19361;51.598;7.650;2023-06-14T09:29:46;2.03;;;1.30;;
33006;SDS011;19361;51.598;7.650;2023-06-14T09:35:07;1.77;;;1.40;;
33006;SDS011;19361;51.598;7.650;2023-06-14T09:40:31;1.10;;;1.00;;
33006;SDS011;19361;51.598;7.650;2023-06-14T09:45:56;5.78;;;1.30;;
33006;SDS011;19361;51.598;7.650;2023-06-14T09:51:17;1.70;;;1.30;;
33006;SDS011;19361;51.598;7.650;2023-06-14T09:56:41;2.58;;;1.30;;
33006;SDS011;19361;51.598;7.650;2023-06-14T10:02:06;1.50;;;1.38;;
33006;SDS011;19361;51.598;7.650;2023-06-14T10:13:20;1.27;;;1.17;;
33006;SDS011;19361;51.598;7.650;2023-06-14T10:24:13;2.00;;;1.35;;
33006;SDS011;19361;51.598;7.650;2023-06-14T10:30:14;1.98;;;1.60;;
33006;SDS011;19361;51.598;7.650;2023-06-14T10:35:28;2.75;;;1.70;;
33006;SDS011;19361;51.598;7.650;2023-06-14T10:40:52;1.73;;;1.60;;
33006;SDS011;19361;51.598;7.650;2023-06-14T10:51:38;1.75;;;1.58;;
33006;SDS011;19361;51.598;7.650;2023-06-14T10:57:07;4.63;;;1.88;;
33006;SDS011;19361;51.598;7.650;2023-06-14T11:14:52;3.22;;;2.05;;
33006;SDS011;19361;51.598;7.650;2023-06-14T11:20:13;1.70;;;1.60;;
33006;SDS011;19361;51.598;7.650;2023-06-14T11:25:36;4.68;;;1.73;;
33006;SDS011;19361;51.598;7.650;2023-06-14T11:31:03;2.90;;;1.70;;
33006;SDS011;19361;51.598;7.650;2023-06-14T11:36:28;2.40;;;1.65;;
33006;SDS011;19361;51.598;7.650;2023-06-14T11:41:51;2.00;;;1.73;;
33006;SDS011;19361;51.598;7.650;2023-06-14T11:47:12;1.98;;;1.80;;
33006;SDS011;19361;51.598;7.650;2023-06-14T11:52:33;2.97;;;1.73;;
33006;SDS011;19361;51.598;7.650;2023-06-14T11:57:56;4.05;;;1.70;;
33006;SDS011;19361;51.598;7.650;2023-06-14T12:03:17;7.30;;;1.90;;
33006;SDS011;19361;51.598;7.650;2023-06-14T12:08:43;2.28;;;1.50;;
33006;SDS011;19361;51.598;7.650;2023-06-14T12:14:05;2.97;;;1.90;;
33006;SDS011;19361;51.598;7.650;2023-06-14T12:19:28;2.42;;;1.75;;
33006;SDS011;19361;51.598;7.650;2023-06-14T12:24:49;3.50;;;1.90;;
33006;SDS011;19361;51.598;7.650;2023-06-14T12:30:10;3.92;;;2.28;;
33006;SDS011;19361;51.598;7.650;2023-06-14T12:35:31;3.17;;;1.98;;
33006;SDS011;19361;51.598;7.650;2023-06-14T12:40:53;2.25;;;1.90;;
33006;SDS011;19361;51.598;7.650;2023-06-14T12:46:14;4.35;;;2.30;;
33006;SDS011;19361;51.598;7.650;2023-06-14T12:51:35;5.78;;;2.03;;
33006;SDS011;19361;51.598;7.650;2023-06-14T12:56:56;2.58;;;1.85;;
33006;SDS011;19361;51.598;7.650;2023-06-14T13:02:17;2.95;;;1.75;;
33006;SDS011;19361;51.598;7.650;2023-06-14T13:07:42;2.00;;;1.83;;
33006;SDS011;19361;51.598;7.650;2023-06-14T13:13:03;5.00;;;2.20;;
33006;SDS011;19361;51.598;7.650;2023-06-14T13:18:24;2.83;;;1.80;;
33006;SDS011;19361;51.598;7.650;2023-06-14T13:23:45;1.80;;;1.70;;
33006;SDS011;19361;51.598;7.650;2023-06-14T13:29:06;2.78;;;1.95;;
33006;SDS011;19361;51.598;7.650;2023-06-14T13:34:28;4.07;;;1.98;;
33006;SDS011;19361;51.598;7.650;2023-06-14T13:39:49;1.95;;;1.67;;
33006;SDS011;19361;51.598;7.650;2023-06-14T13:45:10;2.20;;;2.00;;
33006;SDS011;19361;51.598;7.650;2023-06-14T13:50:32;3.63;;;1.98;;
33006;SDS011;19361;51.598;7.650;2023-06-14T13:55:53;2.03;;;1.92;;
33006;SDS011;19361;51.598;7.650;2023-06-14T14:01:14;3.38;;;1.90;;
33006;SDS011;19361;51.598;7.650;2023-06-14T14:06:36;2.10;;;1.90;;
33006;SDS011;19361;51.598;7.650;2023-06-14T14:11:58;4.05;;;1.80;;
33006;SDS011;19361;51.598;7.650;2023-06-14T14:17:19;2.05;;;1.85;;
33006;SDS011;19361;51.598;7.650;2023-06-14T14:22:41;2.20;;;1.90;;
33006;SDS011;19361;51.598;7.650;2023-06-14T14:28:02;2.17;;;1.98;;
33006;SDS011;19361;51.598;7.650;2023-06-14T14:33:24;2.90;;;1.60;;
33006;SDS011;19361;51.598;7.650;2023-06-14T14:38:45;1.92;;;1.83;;
33006;SDS011;19361;51.598;7.650;2023-06-14T14:44:07;5.40;;;1.95;;
33006;SDS011;19361;51.598;7.650;2023-06-14T14:49:28;3.42;;;1.70;;
33006;SDS011;19361;51.598;7.650;2023-06-14T14:54:51;2.10;;;1.90;;
33006;SDS011;19361;51.598;7.650;2023-06-14T15:00:13;1.98;;;1.80;;
33006;SDS011;19361;51.598;7.650;2023-06-14T15:05:35;2.17;;;1.88;;
33006;SDS011;19361;51.598;7.650;2023-06-14T15:10:57;1.95;;;1.80;;
33006;SDS011;19361;51.598;7.650;2023-06-14T15:16:18;3.88;;;2.22;;
33006;SDS011;19361;51.598;7.650;2023-06-14T15:21:40;2.72;;;2.03;;
33006;SDS011;19361;51.598;7.650;2023-06-14T15:27:01;4.20;;;1.90;;
33006;SDS011;19361;51.598;7.650;2023-06-14T15:32:23;5.22;;;2.00;;
33006;SDS011;19361;51.598;7.650;2023-06-14T15:37:44;2.08;;;1.80;;
33006;SDS011;19361;51.598;7.650;2023-06-14T15:43:08;1.98;;;1.77;;
33006;SDS011;19361;51.598;7.650;2023-06-14T15:48:29;4.45;;;1.95;;
33006;SDS011;19361;51.598;7.650;2023-06-14T15:53:50;2.08;;;1.90;;
33006;SDS011;19361;51.598;7.650;2023-06-14T15:59:12;2.03;;;1.92;;
33006;SDS011;19361;51.598;7.650;2023-06-14T16:04:33;2.45;;;1.83;;
33006;SDS011;19361;51.598;7.650;2023-06-14T16:09:54;2.70;;;1.98;;
33006;SDS011;19361;51.598;7.650;2023-06-14T16:15:15;4.70;;;1.95;;
33006;SDS011;19361;51.598;7.650;2023-06-14T16:20:36;2.25;;;1.85;;
33006;SDS011;19361;51.598;7.650;2023-06-14T16:25:57;2.63;;;1.90;;
33006;SDS011;19361;51.598;7.650;2023-06-14T16:31:18;1.73;;;1.63;;
33006;SDS011;19361;51.598;7.650;2023-06-14T16:36:42;2.55;;;2.35;;
33006;SDS011;19361;51.598;7.650;2023-06-14T16:42:06;1.90;;;1.80;;
33006;SDS011;19361;51.598;7.650;2023-06-14T16:47:27;2.25;;;1.73;;
33006;SDS011;19361;51.598;7.650;2023-06-14T16:52:48;2.00;;;1.77;;
33006;SDS011;19361;51.598;7.650;2023-06-14T16:58:09;2.97;;;1.65;;
33006;SDS011;19361;51.598;7.650;2023-06-14T17:03:30;2.65;;;2.00;;
33006;SDS011;19361;51.598;7.650;2023-06-14T17:08:52;2.35;;;1.80;;
33006;SDS011;19361;51.598;7.650;2023-06-14T17:14:13;3.17;;;2.72;;
33006;SDS011;19361;51.598;7.650;2023-06-14T17:19:35;2.90;;;2.22;;
33006;SDS011;19361;51.598;7.650;2023-06-14T17:24:56;1.60;;;1.50;;
33006;SDS011;19361;51.598;7.650;2023-06-14T17:30:17;4.35;;;1.60;;
33006;SDS011;19361;51.598;7.650;2023-06-14T17:35:38;3.70;;;1.60;;
33006;SDS011;19361;51.598;7.650;2023-06-14T17:40:59;2.53;;;1.38;;
33006;SDS011;19361;51.598;7.650;2023-06-14T17:46:21;1.95;;;1.30;;
33006;SDS011;19361;51.598;7.650;2023-06-14T17:51:42;4.28;;;1.65;;
33006;SDS011;19361;51.598;7.650;2023-06-14T17:57:03;2.22;;;1.70;;
33006;SDS011;19361;51.598;7.650;2023-06-14T18:02:25;3.80;;;1.50;;
33006;SDS011;19361;51.598;7.650;2023-06-14T18:07:46;2.03;;;1.70;;
33006;SDS011;19361;51.598;7.650;2023-06-14T18:13:07;7.30;;;2.78;;
33006;SDS011;19361;51.598;7.650;2023-06-14T18:18:28;2.08;;;1.92;;
33006;SDS011;19361;51.598;7.650;2023-06-14T18:23:49;1.63;;;1.52;;
33006;SDS011;19361;51.598;7.650;2023-06-14T18:29:14;1.55;;;1.40;;
33006;SDS011;19361;51.598;7.650;2023-06-14T18:34:36;2.60;;;2.40;;
33006;SDS011;19361;51.598;7.650;2023-06-14T18:39:57;1.77;;;1.58;;
33006;SDS011;19361;51.598;7.650;2023-06-14T18:45:18;3.97;;;1.60;;
33006;SDS011;19361;51.598;7.650;2023-06-14T18:50:39;2.10;;;1.80;;
33006;SDS011;19361;51.598;7.650;2023-06-14T18:56:00;1.80;;;1.70;;
33006;SDS011;19361;51.598;7.650;2023-06-14T19:01:21;7.45;;;1.70;;
33006;SDS011;19361;51.598;7.650;2023-06-14T19:06:42;4.78;;;1.83;;
33006;SDS011;19361;51.598;7.650;2023-06-14T19:12:03;2.28;;;1.95;;
33006;SDS011;19361;51.598;7.650;2023-06-14T19:17:25;1.88;;;1.70;;
33006;SDS011;19361;51.598;7.650;2023-06-14T19:22:47;3.45;;;1.73;;
33006;SDS011;19361;51.598;7.650;2023-06-14T19:28:08;2.25;;;2.00;;
33006;SDS011;19361;51.598;7.650;2023-06-14T19:33:29;2.15;;;1.95;;
33006;SDS011;19361;51.598;7.650;2023-06-14T19:38:50;3.42;;;1.80;;
33006;SDS011;19361;51.598;7.650;2023-06-14T19:44:11;3.17;;;2.63;;
33006;SDS011;19361;51.598;7.650;2023-06-14T19:49:32;2.72;;;2.20;;
33006;SDS011;19361;51.598;7.650;2023-06-14T19:54:53;2.28;;;2.08;;
33006;SDS011;19361;51.598;7.650;2023-06-14T20:00:15;2.92;;;2.03;;
33006;SDS011;19361;51.598;7.650;2023-06-14T20:05:36;2.50;;;2.30;;
33006;SDS011;19361;51.598;7.650;2023-06-14T20:10:58;4.63;;;2.53;;
33006;SDS011;19361;51.598;7.650;2023-06-14T20:16:19;4.18;;;2.10;;
33006;SDS011;19361;51.598;7.650;2023-06-14T20:21:40;4.18;;;2.45;;
33006;SDS011;19361;51.598;7.650;2023-06-14T20:27:01;3.55;;;2.20;;
33006;SDS011;19361;51.598;7.650;2023-06-14T20:32:22;2.40;;;2.08;;
33006;SDS011;19361;51.598;7.650;2023-06-14T20:37:43;4.15;;;2.08;;
33006;SDS011;19361;51.598;7.650;2023-06-14T20:43:04;2.45;;;2.10;;
33006;SDS011;19361;51.598;7.650;2023-06-14T20:48:27;3.08;;;2.00;;
33006;SDS011;19361;51.598;7.650;2023-06-14T20:53:51;3.33;;;2.25;;
33006;SDS011;19361;51.598;7.650;2023-06-14T20:59:12;7.55;;;2.25;;
33006;SDS011;19361;51.598;7.650;2023-06-14T21:04:33;7.57;;;2.65;;
33006;SDS011;19361;51.598;7.650;2023-06-14T21:09:54;4.03;;;2.45;;
33006;SDS011;19361;51.598;7.650;2023-06-14T21:15:15;3.35;;;2.30;;
33006;SDS011;19361;51.598;7.650;2023-06-14T21:20:37;2.80;;;2.58;;
33006;SDS011;19361;51.598;7.650;2023-06-14T21:25:58;4.25;;;2.63;;
33006;SDS011;19361;51.598;7.650;2023-06-14T21:31:19;5.13;;;2.53;;
33006;SDS011;19361;51.598;7.650;2023-06-14T21:36:40;5.35;;;2.58;;
33006;SDS011;19361;51.598;7.650;2023-06-14T21:42:01;3.35;;;2.78;;
33006;SDS011;19361;51.598;7.650;2023-06-14T21:47:22;4.82;;;2.60;;
33006;SDS011;19361;51.598;7.650;2023-06-14T21:52:43;3.08;;;2.67;;
33006;SDS011;19361;51.598;7.650;2023-06-14T21:58:04;3.80;;;2.50;;
33006;SDS011;19361;51.598;7.650;2023-06-14T22:03:25;4.43;;;2.78;;
33006;SDS011;19361;51.598;7.650;2023-06-14T22:08:46;6.22;;;2.67;;
33006;SDS011;19361;51.598;7.650;2023-06-14T22:14:08;4.00;;;2.75;;
33006;SDS011;19361;51.598;7.650;2023-06-14T22:19:30;5.65;;;2.78;;
33006;SDS011;19361;51.598;7.650;2023-06-14T22:24:51;7.85;;;2.65;;
33006;SDS011;19361;51.598;7.650;2023-06-14T22:30:16;3.80;;;2.33;;
33006;SDS011;19361;51.598;7.650;2023-06-14T22:35:37;9.15;;;2.67;;
33006;SDS011;19361;51.598;7.650;2023-06-14T22:40:58;3.90;;;2.78;;
33006;SDS011;19361;51.598;7.650;2023-06-14T22:46:19;4.95;;;3.05;;
33006;SDS011;19361;51.598;7.650;2023-06-14T22:51:43;5.47;;;3.60;;
33006;SDS011;19361;51.598;7.650;2023-06-14T22:57:04;4.32;;;2.90;;
33006;SDS011;19361;51.598;7.650;2023-06-14T23:02:29;4.40;;;2.63;;
33006;SDS011;19361;51.598;7.650;2023-06-14T23:07:50;3.35;;;2.90;;
33006;SDS011;19361;51.598;7.650;2023-06-14T23:13:12;3.70;;;3.10;;
33006;SDS011;19361;51.598;7.650;2023-06-14T23:18:35;4.53;;;3.10;;
33006;SDS011;19361;51.598;7.650;2023-06-14T23:23:56;3.65;;;3.03;;
33006;SDS011;19361;51.598;7.650;2023-06-14T23:29:18;3.00;;;2.80;;
33006;SDS011;19361;51.598;7.650;2023-06-14T23:34:39;3.00;;;2.70;;
33006;SDS011;19361;51.598;7.650;2023-06-14T23:40:00;8.68;;;3.28;;
33006;SDS011;19361;51.598;7.650;2023-06-14T23:45:24;4.88;;;3.05;;
33006;SDS011;19361;51.598;7.650;2023-06-14T23:50:46;4.60;;;2.70;;
33006;SDS011;19361;51.598;7.650;2023-06-14T23:56:07;5.65;;;3.22;;
